Time;durP1;ratioP1;P1;durP2;ratioP2;P2;SDS_P1;SDS_P2;PMS_P1;PMS_P2;Temp;Humidity;BMP_temperature;BMP_pressure;BME280_temperature;BME280_humidity;BME280_pressure;Samples;Min_cycle;Max_cycle;Signal;HPM_P1;HPM_P2
2021/12/07 00:01:29;;;;;;;;;;;23.10;55.80;;;;;;5115347;28;19969;-60
2021/12/07 00:03:57;;;;;;;;;;;23.00;55.70;;;;;;5113836;28;19930;-56
2021/12/07 00:06:24;;;;;;;;;;;23.00;55.70;;;;;;5114950;28;20440;-57
2021/12/07 00:08:54;;;;;;;;;;;23.00;55.70;;;;;;5115211;28;20014;-52
2021/12/07 00:11:23;;;;;;;;;;;23.00;55.70;;;;;;5114929;28;19950;-56
2021/12/07 00:13:50;;;;;;;;;;;23.00;55.70;;;;;;5113557;28;19924;-58
2021/12/07 00:16:19;;;;;;;;;;;23.00;55.70;;;;;;5115098;28;19993;-50
2021/12/07 00:18:46;;;;;;;;;;;23.00;55.70;;;;;;5114652;28;19924;-56
2021/12/07 00:21:16;;;;;;;;;;;23.00;55.70;;;;;;5115000;28;19973;-52
2021/12/07 00:23:44;;;;;;;;;;;23.00;55.70;;;;;;5114803;28;19928;-53
2021/12/07 00:26:30;;;;;;;;;;;23.00;55.70;;;;;;5114589;28;19924;-58
2021/12/07 00:28:59;;;;;;;;;;;23.00;55.70;;;;;;5113438;28;19969;-55
2021/12/07 00:31:30;;;;;;;;;;;23.00;55.70;;;;;;5114534;28;20406;-50
2021/12/07 00:37:03;;;;;;;;;;;23.00;55.70;;;;;;5071822;28;19935;-51
2021/12/07 00:39:30;;;;;;;;;;;23.00;55.70;;;;;;5071957;28;19974;-58
2021/12/07 00:41:58;;;;;;;;;;;23.00;55.70;;;;;;5071932;28;19948;-52
2021/12/07 00:44:26;;;;;;;;;;;23.00;55.70;;;;;;5089754;28;20407;-53
2021/12/07 00:46:53;;;;;;;;;;;23.00;55.70;;;;;;5091866;28;19924;-53
2021/12/07 00:49:20;;;;;;;;;;;23.00;55.70;;;;;;5091880;28;19978;-59
2021/12/07 00:51:47;;;;;;;;;;;23.00;55.70;;;;;;5074984;28;20343;-59
2021/12/07 00:54:14;;;;;;;;;;;23.00;55.70;;;;;;5091743;28;19930;-59
2021/12/07 00:56:41;;;;;;;;;;;23.00;55.70;;;;;;5091572;28;19928;-55
2021/12/07 00:59:08;;;;;;;;;;;23.00;55.70;;;;;;5090107;28;19924;-57
2021/12/07 01:01:35;;;;;;;;;;;23.00;55.70;;;;;;5091967;28;19924;-54
2021/12/07 01:04:03;;;;;;;;;;;23.00;55.70;;;;;;5091754;28;20011;-59
2021/12/07 01:06:43;;;;;;;;;;;23.00;55.70;;;;;;5091712;28;19970;-59
2021/12/07 01:09:30;;;;;;;;;;;23.00;55.70;;;;;;5091740;28;19931;-53
2021/12/07 01:26:05;;;;;;;;;;;23.00;55.70;;;;;;5051398;28;20424;-53
2021/12/07 01:28:38;;;;;;;;;;;23.00;55.70;;;;;;5050142;28;20496;-58
2021/12/07 01:31:15;;;;;;;;;;;23.00;55.70;;;;;;5051316;28;19931;-54
2021/12/07 01:34:00;;;;;;;;;;;23.00;55.70;;;;;;5051299;28;19925;-56
2021/12/07 01:39:46;;;;;;;;;;;23.00;55.70;;;;;;5051164;28;19925;-55
2021/12/07 01:48:09;;;;;;;;;;;23.00;55.70;;;;;;5051095;28;20391;-51
2021/12/07 02:01:05;;;;;;;;;;;23.00;55.70;;;;;;5085119;28;19927;-58
2021/12/07 02:03:33;;;;;;;;;;;23.00;55.70;;;;;;5136905;27;19924;-50
2021/12/07 02:06:00;;;;;;;;;;;23.00;55.70;;;;;;5138195;27;19973;-59
2021/12/07 02:08:27;;;;;;;;;;;23.00;55.70;;;;;;5137773;27;19929;-59
2021/12/07 02:10:59;;;;;;;;;;;23.00;55.70;;;;;;5137784;27;19923;-55
2021/12/07 02:16:01;;;;;;;;;;;22.90;55.70;;;;;;5117482;28;19927;-54
2021/12/07 02:18:28;;;;;;;;;;;22.90;55.70;;;;;;5117312;28;20325;-54
2021/12/07 02:20:55;;;;;;;;;;;23.00;55.70;;;;;;5117018;28;19923;-59
2021/12/07 02:23:22;;;;;;;;;;;22.90;55.70;;;;;;5116751;28;19950;-51
2021/12/07 02:25:49;;;;;;;;;;;22.90;55.70;;;;;;5116925;28;20400;-55
2021/12/07 02:28:16;;;;;;;;;;;22.90;55.60;;;;;;5116057;28;19972;-58
2021/12/07 02:30:44;;;;;;;;;;;22.90;55.70;;;;;;5116544;27;19923;-48
2021/12/07 02:33:11;;;;;;;;;;;22.90;55.70;;;;;;5116773;28;20022;-54
2021/12/07 02:35:38;;;;;;;;;;;22.90;55.70;;;;;;5117074;28;19973;-57
2021/12/07 02:38:05;;;;;;;;;;;22.90;55.70;;;;;;5116593;28;19924;-59
2021/12/07 02:40:32;;;;;;;;;;;22.90;55.70;;;;;;5116904;28;19924;-50
2021/12/07 02:42:59;;;;;;;;;;;22.90;55.70;;;;;;5116590;28;19924;-53
2021/12/07 02:45:26;;;;;;;;;;;22.90;55.70;;;;;;5115691;28;20325;-56
2021/12/07 02:47:54;;;;;;;;;;;22.90;55.70;;;;;;5116842;28;19927;-55
2021/12/07 02:50:21;;;;;;;;;;;22.90;55.70;;;;;;5116754;28;20015;-55
2021/12/07 02:52:48;;;;;;;;;;;22.90;55.70;;;;;;5116542;28;20007;-51
2021/12/07 02:55:15;;;;;;;;;;;22.90;55.70;;;;;;5122919;27;19923;-57
2021/12/07 02:57:43;;;;;;;;;;;22.90;55.80;;;;;;5137054;27;19972;-47
2021/12/07 03:00:16;;;;;;;;;;;22.90;55.70;;;;;;5136172;27;19924;-50
2021/12/07 03:02:52;;;;;;;;;;;22.90;55.80;;;;;;5137651;27;20431;-53
2021/12/07 03:08:43;;;;;;;;;;;22.90;55.70;;;;;;5137010;27;20328;-58
2021/12/07 03:27:36;;;;;;;;;;;22.80;55.70;;;;;;5157231;27;20331;-47
2021/12/07 03:30:05;;;;;;;;;;;22.80;55.70;;;;;;5145377;27;19927;-57
2021/12/07 03:32:32;;;;;;;;;;;22.80;55.70;;;;;;5136141;27;19931;-58
2021/12/07 03:34:59;;;;;;;;;;;22.80;55.70;;;;;;5136094;27;19927;-55
2021/12/07 03:37:26;;;;;;;;;;;22.80;55.70;;;;;;5136355;27;20259;-58
2021/12/07 03:39:52;;;;;;;;;;;22.80;55.70;;;;;;5136243;27;20354;-52
2021/12/07 03:42:19;;;;;;;;;;;22.80;55.70;;;;;;5135955;27;19923;-59
2021/12/07 03:44:46;;;;;;;;;;;22.80;55.70;;;;;;5134770;27;19969;-51
2021/12/07 03:47:13;;;;;;;;;;;22.80;55.70;;;;;;5135862;27;19923;-53
2021/12/07 03:49:40;;;;;;;;;;;22.80;55.70;;;;;;5117665;27;19927;-59
2021/12/07 03:52:08;;;;;;;;;;;22.80;55.70;;;;;;5136052;27;19988;-56
2021/12/07 03:54:35;;;;;;;;;;;22.80;55.80;;;;;;5135338;27;19923;-55
2021/12/07 03:57:03;;;;;;;;;;;22.80;55.70;;;;;;5135688;27;19972;-55
2021/12/07 03:59:30;;;;;;;;;;;22.80;55.80;;;;;;5116579;27;20479;-55
2021/12/07 04:01:57;;;;;;;;;;;22.80;55.80;;;;;;5117721;27;19923;-57
2021/12/07 04:04:24;;;;;;;;;;;22.80;55.80;;;;;;5135506;27;20024;-58
2021/12/07 04:06:51;;;;;;;;;;;22.80;55.80;;;;;;5135468;27;20298;-59
2021/12/07 04:09:18;;;;;;;;;;;22.80;55.80;;;;;;5135434;27;19976;-52
2021/12/07 04:11:45;;;;;;;;;;;22.80;55.80;;;;;;5135400;27;20435;-57
2021/12/07 04:14:12;;;;;;;;;;;22.80;55.80;;;;;;5135671;27;19970;-58
2021/12/07 04:16:39;;;;;;;;;;;22.80;55.90;;;;;;5134410;27;19924;-55
2021/12/07 04:19:06;;;;;;;;;;;22.80;55.80;;;;;;5135516;27;20263;-57
2021/12/07 04:21:33;;;;;;;;;;;22.80;55.90;;;;;;5135528;27;20298;-51
2021/12/07 04:24:00;;;;;;;;;;;22.80;55.80;;;;;;5134993;27;19931;-53
2021/12/07 04:26:27;;;;;;;;;;;22.80;55.80;;;;;;5134705;27;19949;-59
2021/12/07 04:28:54;;;;;;;;;;;22.80;55.90;;;;;;5134969;27;19976;-52
2021/12/07 04:31:21;;;;;;;;;;;22.80;55.80;;;;;;5133965;27;19923;-55
2021/12/07 04:33:48;;;;;;;;;;;22.80;55.90;;;;;;5135032;27;19972;-57
2021/12/07 04:36:16;;;;;;;;;;;22.80;55.90;;;;;;5135311;27;19970;-58
2021/12/07 04:38:43;;;;;;;;;;;22.80;55.90;;;;;;5134907;27;19931;-55
2021/12/07 04:41:10;;;;;;;;;;;22.80;55.90;;;;;;5135002;27;19931;-59
2021/12/07 04:43:38;;;;;;;;;;;22.70;55.80;;;;;;5135243;27;20301;-59
2021/12/07 04:59:37;;;;;;;;;;;22.70;55.80;;;;;;5134535;28;19923;-56
2021/12/07 05:02:04;;;;;;;;;;;22.70;55.80;;;;;;5133782;27;19923;-50
2021/12/07 05:04:34;;;;;;;;;;;22.70;55.80;;;;;;5134969;28;19928;-58
2021/12/07 05:07:09;;;;;;;;;;;22.70;55.80;;;;;;5134982;28;19923;-57
2021/12/07 05:14:59;;;;;;;;;;;22.70;55.90;;;;;;5093017;28;19973;-58
2021/12/07 05:26:11;;;;;;;;;;;22.70;55.90;;;;;;5134499;28;19930;-51
2021/12/07 05:39:32;;;;;;;;;;;22.70;55.90;;;;;;5137970;27;19976;-58
2021/12/07 05:41:59;;;;;;;;;;;22.70;55.90;;;;;;5138654;27;20340;-55
2021/12/07 05:44:26;;;;;;;;;;;22.70;55.90;;;;;;5138272;27;20447;-55
2021/12/07 05:46:53;;;;;;;;;;;22.70;55.90;;;;;;5136987;27;20022;-58
2021/12/07 05:49:20;;;;;;;;;;;22.70;55.90;;;;;;5138192;27;19924;-56
2021/12/07 05:51:47;;;;;;;;;;;22.70;55.90;;;;;;5138127;27;19923;-58
2021/12/07 05:54:14;;;;;;;;;;;22.70;55.90;;;;;;5137879;27;19923;-55
2021/12/07 05:56:41;;;;;;;;;;;22.60;55.90;;;;;;5137873;27;19928;-58
2021/12/07 05:59:08;;;;;;;;;;;22.70;55.90;;;;;;5137772;27;19928;-58
2021/12/07 06:01:35;;;;;;;;;;;22.60;55.80;;;;;;5136872;27;19924;-55
2021/12/07 06:04:02;;;;;;;;;;;22.60;55.80;;;;;;5137781;27;20018;-55
2021/12/07 06:06:29;;;;;;;;;;;22.70;55.90;;;;;;5138124;27;19931;-57
2021/12/07 06:08:56;;;;;;;;;;;22.70;55.90;;;;;;5138099;27;20010;-58
2021/12/07 06:11:24;;;;;;;;;;;22.70;55.90;;;;;;5137695;27;19923;-57
2021/12/07 06:13:51;;;;;;;;;;;22.70;55.90;;;;;;5137995;27;19927;-55
2021/12/07 06:16:19;;;;;;;;;;;22.70;55.90;;;;;;5136842;27;19938;-51
2021/12/07 06:18:47;;;;;;;;;;;22.70;55.90;;;;;;5137883;27;19931;-57
2021/12/07 06:21:14;;;;;;;;;;;22.70;55.90;;;;;;5137460;27;20035;-55
2021/12/07 06:23:41;;;;;;;;;;;22.70;55.80;;;;;;5137318;27;19931;-57
2021/12/07 06:26:08;;;;;;;;;;;22.70;55.80;;;;;;5137465;27;19924;-50
2021/12/07 06:28:35;;;;;;;;;;;22.70;55.80;;;;;;5137577;27;19923;-51
2021/12/07 06:31:03;;;;;;;;;;;22.70;55.80;;;;;;5136368;27;19935;-53
2021/12/07 06:33:30;;;;;;;;;;;22.70;55.80;;;;;;5137374;27;19961;-59
2021/12/07 06:36:00;;;;;;;;;;;22.70;55.70;;;;;;5137316;27;20023;-56
2021/12/07 06:38:29;;;;;;;;;;;22.70;55.70;;;;;;5137117;27;20010;-57
2021/12/07 06:40:56;;;;;;;;;;;22.70;55.70;;;;;;5137464;27;19929;-58
2021/12/07 06:43:23;;;;;;;;;;;22.70;55.70;;;;;;5137060;27;19953;-57
2021/12/07 06:45:50;;;;;;;;;;;22.70;55.70;;;;;;5137088;27;20505;-51
2021/12/07 06:48:18;;;;;;;;;;;22.70;55.70;;;;;;5135631;27;19935;-53
2021/12/07 06:50:45;;;;;;;;;;;22.70;55.60;;;;;;5136992;27;19923;-58
2021/12/07 06:53:12;;;;;;;;;;;22.70;55.70;;;;;;5136760;27;19923;-58
2021/12/07 06:55:39;;;;;;;;;;;22.70;55.60;;;;;;5136721;27;19938;-54
2021/12/07 06:58:06;;;;;;;;;;;22.70;55.60;;;;;;5137053;27;19923;-51
2021/12/07 07:00:33;;;;;;;;;;;22.70;55.60;;;;;;5136706;27;19923;-57
2021/12/07 07:03:01;;;;;;;;;;;22.70;55.50;;;;;;5135761;27;19923;-50
2021/12/07 07:05:28;;;;;;;;;;;22.80;55.90;;;;;;5137064;27;19927;-54
2021/12/07 07:07:56;;;;;;;;;;;22.80;55.60;;;;;;5136634;27;19972;-56
2021/12/07 07:10:23;;;;;;;;;;;22.80;55.50;;;;;;5136581;27;19923;-50
2021/12/07 07:12:50;;;;;;;;;;;22.80;55.50;;;;;;5137385;27;19924;-54
2021/12/07 07:15:18;;;;;;;;;;;22.80;55.50;;;;;;5136455;27;20401;-58
2021/12/07 07:17:45;;;;;;;;;;;22.80;55.40;;;;;;5135637;27;20336;-57
2021/12/07 07:20:13;;;;;;;;;;;22.80;55.40;;;;;;5136618;27;19931;-58
2021/12/07 07:22:40;;;;;;;;;;;22.80;55.40;;;;;;5136442;27;19928;-54
2021/12/07 07:25:08;;;;;;;;;;;22.80;55.30;;;;;;5136599;27;19923;-49
2021/12/07 07:27:36;;;;;;;;;;;22.80;55.30;;;;;;5136121;27;19973;-54
2021/12/07 07:30:04;;;;;;;;;;;22.80;55.30;;;;;;5136177;27;19924;-57
2021/12/07 07:32:31;;;;;;;;;;;22.80;55.30;;;;;;5134955;27;19933;-54
2021/12/07 07:34:58;;;;;;;;;;;22.90;55.30;;;;;;5136428;27;20294;-56
2021/12/07 07:37:25;;;;;;;;;;;22.90;55.30;;;;;;5136400;27;20327;-57
2021/12/07 07:39:52;;;;;;;;;;;22.90;55.20;;;;;;5135877;27;20316;-58
2021/12/07 07:42:19;;;;;;;;;;;22.90;55.20;;;;;;5136192;27;19923;-56
2021/12/07 07:44:46;;;;;;;;;;;22.90;55.20;;;;;;5135898;27;19923;-57
2021/12/07 07:47:13;;;;;;;;;;;22.90;55.20;;;;;;5134599;27;19924;-53
2021/12/07 07:49:40;;;;;;;;;;;22.90;55.70;;;;;;5135750;27;19927;-56
2021/12/07 07:52:07;;;;;;;;;;;22.90;55.10;;;;;;5135726;27;19923;-56
2021/12/07 07:54:34;;;;;;;;;;;22.90;55.10;;;;;;5135630;27;20074;-55
2021/12/07 07:57:01;;;;;;;;;;;23.00;55.10;;;;;;5135982;27;19942;-54
2021/12/07 07:59:28;;;;;;;;;;;23.00;55.10;;;;;;5135772;27;20014;-50
2021/12/07 08:01:55;;;;;;;;;;;23.00;55.10;;;;;;5133954;27;19929;-59
2021/12/07 08:04:22;;;;;;;;;;;23.00;55.00;;;;;;5135817;27;19923;-55
2021/12/07 08:06:50;;;;;;;;;;;23.00;55.10;;;;;;5135765;27;19927;-53
2021/12/07 08:09:17;;;;;;;;;;;23.00;54.90;;;;;;5135430;27;19923;-54
2021/12/07 08:11:44;;;;;;;;;;;23.00;54.80;;;;;;5135295;27;19923;-58
2021/12/07 08:14:11;;;;;;;;;;;23.00;54.80;;;;;;5135667;27;20290;-54
2021/12/07 08:16:38;;;;;;;;;;;23.00;54.80;;;;;;5135169;27;20397;-51
2021/12/07 08:19:05;;;;;;;;;;;23.10;54.90;;;;;;5134335;27;19923;-52
2021/12/07 08:21:32;;;;;;;;;;;23.10;54.90;;;;;;5135056;27;19924;-52
2021/12/07 08:23:59;;;;;;;;;;;23.10;54.90;;;;;;5134915;27;20039;-60
2021/12/07 08:26:27;;;;;;;;;;;23.10;54.80;;;;;;5135177;27;20321;-59
2021/12/07 08:28:55;;;;;;;;;;;23.10;54.80;;;;;;5134921;27;19968;-55
2021/12/07 08:31:23;;;;;;;;;;;23.10;54.80;;;;;;5135025;27;19969;-58
2021/12/07 08:33:50;;;;;;;;;;;23.10;54.80;;;;;;5115625;27;19949;-56
2021/12/07 08:36:17;;;;;;;;;;;23.10;54.70;;;;;;5134973;27;19948;-56
2021/12/07 08:38:45;;;;;;;;;;;23.10;54.70;;;;;;5135796;27;19924;-58
2021/12/07 08:41:13;;;;;;;;;;;23.10;54.70;;;;;;5134845;27;19934;-57
2021/12/07 08:43:41;;;;;;;;;;;23.10;54.70;;;;;;5116758;27;20405;-54
2021/12/07 08:46:09;;;;;;;;;;;23.10;54.60;;;;;;5135126;27;20386;-55
2021/12/07 08:48:36;;;;;;;;;;;23.10;54.60;;;;;;5133573;27;19923;-57
2021/12/07 08:51:05;;;;;;;;;;;23.10;54.60;;;;;;5134800;27;19924;-56
2021/12/07 08:53:33;;;;;;;;;;;23.10;54.60;;;;;;5134591;27;19927;-58
2021/12/07 09:01:33;;;;;;;;;;;23.10;54.50;;;;;;5134948;28;19927;-56
2021/12/07 09:04:01;;;;;;;;;;;23.20;54.60;;;;;;5133264;27;20018;-52
2021/12/07 09:06:28;;;;;;;;;;;23.10;54.50;;;;;;5134448;28;19930;-55
2021/12/07 09:08:56;;;;;;;;;;;23.10;54.50;;;;;;5134813;28;19923;-50
2021/12/07 09:11:23;;;;;;;;;;;23.20;54.60;;;;;;5116844;27;20328;-54
2021/12/07 09:13:50;;;;;;;;;;;23.20;54.60;;;;;;5138918;27;19973;-54
2021/12/07 09:16:18;;;;;;;;;;;23.20;54.60;;;;;;5139137;27;19924;-59
2021/12/07 09:18:45;;;;;;;;;;;23.20;54.60;;;;;;5137872;27;20305;-54
2021/12/07 09:21:14;;;;;;;;;;;23.20;54.60;;;;;;5138933;27;19977;-55
2021/12/07 09:23:41;;;;;;;;;;;23.20;54.60;;;;;;5138468;27;19923;-52
2021/12/07 09:26:10;;;;;;;;;;;23.20;54.50;;;;;;5138487;27;20391;-56
2021/12/07 09:28:38;;;;;;;;;;;23.20;54.50;;;;;;5138438;27;19977;-56
2021/12/07 09:31:07;;;;;;;;;;;23.20;54.50;;;;;;5138524;27;19923;-57
2021/12/07 09:33:34;;;;;;;;;;;23.20;54.50;;;;;;5137192;27;19963;-58
2021/12/07 09:36:03;;;;;;;;;;;23.20;54.50;;;;;;5138590;27;19988;-52
2021/12/07 09:38:30;;;;;;;;;;;23.20;54.50;;;;;;5138338;27;19923;-51
2021/12/07 09:40:58;;;;;;;;;;;23.20;54.50;;;;;;5138598;27;20018;-59
2021/12/07 09:43:25;;;;;;;;;;;23.20;54.50;;;;;;5138277;27;19931;-58
2021/12/07 09:45:52;;;;;;;;;;;23.20;54.40;;;;;;5138232;27;19953;-56
2021/12/07 09:48:19;;;;;;;;;;;23.30;54.50;;;;;;5137282;27;19949;-58
2021/12/07 09:50:47;;;;;;;;;;;23.20;54.40;;;;;;5138195;27;20378;-56
2021/12/07 09:53:15;;;;;;;;;;;23.20;54.40;;;;;;5137958;27;19927;-58
2021/12/07 09:55:43;;;;;;;;;;;23.30;54.50;;;;;;5137899;27;19923;-57
2021/12/07 09:58:11;;;;;;;;;;;23.30;54.40;;;;;;5138230;27;19923;-57
2021/12/07 10:00:38;;;;;;;;;;;23.30;54.40;;;;;;5138169;27;20278;-54
2021/12/07 10:03:06;;;;;;;;;;;23.30;54.40;;;;;;5136784;27;20006;-55
2021/12/07 10:05:35;;;;;;;;;;;23.30;54.30;;;;;;5138211;27;19927;-52
2021/12/07 10:08:05;;;;;;;;;;;23.30;54.30;;;;;;5138147;27;20294;-57
2021/12/07 10:10:34;;;;;;;;;;;23.30;54.30;;;;;;5137737;27;19976;-55
2021/12/07 10:13:02;;;;;;;;;;;23.30;54.30;;;;;;5137740;27;20435;-57
2021/12/07 10:15:30;;;;;;;;;;;23.30;54.30;;;;;;5119479;27;20008;-56
2021/12/07 10:18:06;;;;;;;;;;;23.30;54.30;;;;;;5137956;27;19923;-59
2021/12/07 10:20:53;;;;;;;;;;;23.30;54.30;;;;;;5122168;27;19923;-57
2021/12/07 10:23:20;;;;;;;;;;;23.30;54.20;;;;;;5136616;27;19923;-54
2021/12/07 10:25:51;;;;;;;;;;;23.30;54.20;;;;;;5137521;27;19924;-49
2021/12/07 10:28:36;;;;;;;;;;;23.40;54.30;;;;;;5137676;27;19946;-55
2021/12/07 10:31:06;;;;;;;;;;;23.30;54.10;;;;;;5137393;27;20014;-53
2021/12/07 10:33:35;;;;;;;;;;;23.40;54.20;;;;;;5136324;27;19923;-55
2021/12/07 10:36:07;;;;;;;;;;;23.40;54.20;;;;;;5119207;27;19928;-56
2021/12/07 10:38:34;;;;;;;;;;;23.40;54.20;;;;;;5137217;27;19923;-57
2021/12/07 10:41:03;;;;;;;;;;;23.40;54.20;;;;;;5137136;27;19931;-54
2021/12/07 10:43:39;;;;;;;;;;;23.40;54.20;;;;;;5137522;27;19930;-57
2021/12/07 10:46:25;;;;;;;;;;;23.40;54.20;;;;;;5137110;27;19924;-57
2021/12/07 10:49:12;;;;;;;;;;;23.40;54.20;;;;;;5135821;27;20014;-56
2021/12/07 10:51:40;;;;;;;;;;;23.40;54.10;;;;;;5136948;27;20398;-50
2021/12/07 10:54:07;;;;;;;;;;;23.40;54.10;;;;;;5137087;27;20010;-53
2021/12/07 10:56:38;;;;;;;;;;;23.50;54.20;;;;;;5136794;27;19923;-51
2021/12/07 10:59:07;;;;;;;;;;;23.50;54.20;;;;;;5137375;27;19923;-54
2021/12/07 11:01:38;;;;;;;;;;;23.50;54.10;;;;;;5136683;27;19968;-58
2021/12/07 11:04:24;;;;;;;;;;;23.40;54.00;;;;;;5117401;27;19980;-56
2021/12/07 11:07:09;;;;;;;;;;;23.50;54.10;;;;;;5136596;27;19930;-58
2021/12/07 11:09:38;;;;;;;;;;;23.50;54.10;;;;;;5136872;27;19924;-57
2021/12/07 11:12:06;;;;;;;;;;;23.50;54.10;;;;;;5136779;27;19931;-53
2021/12/07 11:14:40;;;;;;;;;;;23.50;54.10;;;;;;5136812;27;19945;-57
2021/12/07 11:17:08;;;;;;;;;;;23.50;54.00;;;;;;5136801;27;19958;-55
2021/12/07 11:19:36;;;;;;;;;;;23.50;54.00;;;;;;5135783;27;19924;-58
2021/12/07 11:22:03;;;;;;;;;;;23.50;54.00;;;;;;5136576;27;19949;-59
2021/12/07 11:24:37;;;;;;;;;;;23.50;54.00;;;;;;5136198;27;20005;-56
2021/12/07 11:30:05;;;;;;;;;;;23.50;53.90;;;;;;5136227;27;19923;-52
2021/12/07 11:32:33;;;;;;;;;;;23.50;53.90;;;;;;5136113;27;19928;-50
2021/12/07 11:35:26;;;;;;;;;;;23.50;53.90;;;;;;5134408;27;19930;-57
2021/12/07 11:37:55;;;;;;;;;;;23.50;53.90;;;;;;5131955;27;19924;-58
2021/12/07 11:40:25;;;;;;;;;;;23.50;53.90;;;;;;5135980;27;19977;-57
2021/12/07 11:42:52;;;;;;;;;;;23.50;53.90;;;;;;5136838;27;20396;-52
2021/12/07 11:45:19;;;;;;;;;;;23.60;54.00;;;;;;5136349;27;19923;-53
2021/12/07 11:47:50;;;;;;;;;;;23.60;54.00;;;;;;5136008;27;20394;-55
2021/12/07 11:50:20;;;;;;;;;;;23.60;54.00;;;;;;5135173;27;19970;-52
2021/12/07 11:52:49;;;;;;;;;;;23.60;54.00;;;;;;5135645;27;20025;-53
2021/12/07 11:55:17;;;;;;;;;;;23.60;54.00;;;;;;5135579;27;19969;-57
2021/12/07 11:57:46;;;;;;;;;;;23.60;54.00;;;;;;5135887;27;20324;-57
2021/12/07 12:00:17;;;;;;;;;;;23.60;54.00;;;;;;5135965;27;20275;-58
2021/12/07 12:02:44;;;;;;;;;;;23.60;54.00;;;;;;5117734;27;19967;-52
2021/12/07 12:05:12;;;;;;;;;;;23.60;54.00;;;;;;5116973;27;19927;-56
2021/12/07 12:07:41;;;;;;;;;;;23.60;54.00;;;;;;5135692;27;19923;-52
2021/12/07 12:10:10;;;;;;;;;;;23.60;54.00;;;;;;5135495;27;19927;-53
2021/12/07 12:12:56;;;;;;;;;;;23.60;54.00;;;;;;5135946;27;20362;-56
2021/12/07 12:15:58;;;;;;;;;;;23.60;54.00;;;;;;5135657;27;19927;-59
2021/12/07 12:18:32;;;;;;;;;;;23.60;54.00;;;;;;5032427;28;19948;-53
2021/12/07 12:21:05;;;;;;;;;;;23.60;54.10;;;;;;5043791;28;19931;-53
2021/12/07 12:23:48;;;;;;;;;;;23.50;54.00;;;;;;5052122;28;19991;-55
2021/12/07 12:26:20;;;;;;;;;;;23.60;54.10;;;;;;5052079;28;20347;-52
2021/12/07 12:28:47;;;;;;;;;;;23.60;54.10;;;;;;5051918;28;20023;-58
2021/12/07 12:31:15;;;;;;;;;;;23.60;54.10;;;;;;5051961;28;19932;-56
2021/12/07 12:33:50;;;;;;;;;;;23.60;54.10;;;;;;5035672;28;19929;-57
2021/12/07 12:36:19;;;;;;;;;;;23.60;54.10;;;;;;5050356;28;19932;-57
2021/12/07 12:38:54;;;;;;;;;;;23.60;54.10;;;;;;5051863;28;19932;-58
2021/12/07 12:41:22;;;;;;;;;;;23.60;54.10;;;;;;5051823;28;19970;-54
2021/12/07 12:43:54;;;;;;;;;;;23.60;54.10;;;;;;5051799;28;19925;-51
2021/12/07 12:46:28;;;;;;;;;;;23.60;54.10;;;;;;5051558;28;19925;-57
2021/12/07 12:48:57;;;;;;;;;;;23.60;54.10;;;;;;5051766;28;19960;-57
2021/12/07 12:51:26;;;;;;;;;;;23.60;54.10;;;;;;5055553;27;20039;-56
2021/12/07 12:53:54;;;;;;;;;;;23.60;54.10;;;;;;5134883;27;19923;-53
2021/12/07 12:56:23;;;;;;;;;;;23.60;54.10;;;;;;5134511;27;20043;-55
2021/12/07 12:58:54;;;;;;;;;;;23.60;54.10;;;;;;5116012;28;20454;-56
2021/12/07 13:01:27;;;;;;;;;;;23.60;54.10;;;;;;5134917;27;20305;-56
2021/12/07 13:04:06;;;;;;;;;;;23.60;54.10;;;;;;5134721;28;19923;-56
2021/12/07 13:06:33;;;;;;;;;;;23.60;54.10;;;;;;5133584;27;20010;-56
2021/12/07 13:09:22;;;;;;;;;;;23.60;54.10;;;;;;5134677;28;20014;-57
2021/12/07 13:11:54;;;;;;;;;;;23.60;54.10;;;;;;5134928;28;19924;-55
2021/12/07 13:14:21;;;;;;;;;;;23.60;54.20;;;;;;5134565;28;19930;-58
2021/12/07 13:16:48;;;;;;;;;;;23.60;54.20;;;;;;5134888;28;19959;-53
2021/12/07 13:19:16;;;;;;;;;;;23.60;54.20;;;;;;5134520;28;19923;-52
2021/12/07 13:21:44;;;;;;;;;;;23.60;54.20;;;;;;5117632;28;19927;-58
2021/12/07 13:24:14;;;;;;;;;;;23.60;54.20;;;;;;5134503;28;19930;-49
2021/12/07 13:26:43;;;;;;;;;;;23.60;54.20;;;;;;5134463;28;19972;-52
2021/12/07 13:29:11;;;;;;;;;;;23.60;54.20;;;;;;5134320;28;20402;-53
2021/12/07 13:31:40;;;;;;;;;;;23.60;54.20;;;;;;5134695;28;19924;-58
2021/12/07 13:34:08;;;;;;;;;;;23.60;54.30;;;;;;5134730;28;19923;-58
2021/12/07 13:36:35;;;;;;;;;;;23.60;54.30;;;;;;5133353;27;20263;-51
2021/12/07 13:39:16;;;;;;;;;;;23.60;54.30;;;;;;5134678;28;19976;-52
2021/12/07 13:42:08;;;;;;;;;;;23.60;54.30;;;;;;5117036;28;20335;-58
2021/12/07 13:44:38;;;;;;;;;;;23.60;54.30;;;;;;5135141;28;19930;-50
2021/12/07 13:47:11;;;;;;;;;;;23.60;54.30;;;;;;5134547;28;20378;-51
2021/12/07 13:49:39;;;;;;;;;;;23.60;54.30;;;;;;5134299;28;20363;-50
2021/12/07 13:52:14;;;;;;;;;;;23.60;54.30;;;;;;5133020;27;19924;-59
2021/12/07 13:54:43;;;;;;;;;;;23.60;54.30;;;;;;5116948;28;20310;-59
2021/12/07 13:57:17;;;;;;;;;;;23.60;54.30;;;;;;5134125;28;19923;-51
2021/12/07 14:00:09;;;;;;;;;;;23.60;54.30;;;;;;5137099;27;19923;-51
2021/12/07 14:02:36;;;;;;;;;;;23.60;54.30;;;;;;5137908;27;19923;-51
2021/12/07 14:05:15;;;;;;;;;;;23.60;54.30;;;;;;5120144;27;20010;-52
2021/12/07 14:07:43;;;;;;;;;;;23.60;54.30;;;;;;5136691;27;19934;-58
2021/12/07 14:10:16;;;;;;;;;;;23.60;54.30;;;;;;5137863;27;19931;-56
2021/12/07 14:12:43;;;;;;;;;;;23.60;54.30;;;;;;5137825;27;19976;-58
2021/12/07 14:15:16;;;;;;;;;;;23.60;54.30;;;;;;5137755;27;19924;-54
2021/12/07 14:17:51;;;;;;;;;;;23.60;54.30;;;;;;5137771;27;19923;-58
2021/12/07 14:20:28;;;;;;;;;;;23.60;54.30;;;;;;5137980;27;19923;-57
2021/12/07 14:22:56;;;;;;;;;;;23.60;54.30;;;;;;5136265;27;19923;-48
2021/12/07 14:25:23;;;;;;;;;;;23.60;54.30;;;;;;5137881;27;19950;-50
2021/12/07 14:27:51;;;;;;;;;;;23.60;54.90;;;;;;5138032;27;20295;-54
2021/12/07 14:30:18;;;;;;;;;;;23.60;54.30;;;;;;5137786;27;19924;-57
2021/12/07 14:32:45;;;;;;;;;;;23.60;54.30;;;;;;5137748;27;19927;-58
2021/12/07 14:35:12;;;;;;;;;;;23.60;54.30;;;;;;5137359;27;19931;-56
2021/12/07 14:37:39;;;;;;;;;;;23.60;54.30;;;;;;5136079;27;19935;-52
2021/12/07 14:40:07;;;;;;;;;;;23.60;54.30;;;;;;5137249;27;19972;-58
2021/12/07 14:42:34;;;;;;;;;;;23.60;54.30;;;;;;5119230;27;20301;-55
2021/12/07 14:45:01;;;;;;;;;;;23.60;54.30;;;;;;5137474;27;20443;-58
2021/12/07 14:47:29;;;;;;;;;;;23.60;54.30;;;;;;5137447;27;20001;-57
2021/12/07 14:49:56;;;;;;;;;;;23.60;54.40;;;;;;5137092;27;19930;-54
2021/12/07 14:52:26;;;;;;;;;;;23.60;54.40;;;;;;5135554;27;19935;-57
2021/12/07 14:54:55;;;;;;;;;;;23.60;54.40;;;;;;5136780;27;20870;-59
2021/12/07 14:57:22;;;;;;;;;;;23.60;54.40;;;;;;5136830;27;19923;-52
2021/12/07 14:59:51;;;;;;;;;;;23.60;54.40;;;;;;5137125;27;19972;-51
2021/12/07 15:02:19;;;;;;;;;;;23.60;54.40;;;;;;5137241;27;19972;-53
2021/12/07 15:04:54;;;;;;;;;;;23.60;54.40;;;;;;5118966;27;20030;-55
2021/12/07 15:07:30;;;;;;;;;;;23.60;54.40;;;;;;5135743;27;19966;-53
2021/12/07 15:09:59;;;;;;;;;;;23.60;54.50;;;;;;5136516;27;19923;-58
2021/12/07 15:12:26;;;;;;;;;;;23.60;54.40;;;;;;5119361;27;19972;-50
2021/12/07 15:14:58;;;;;;;;;;;23.60;54.50;;;;;;5136604;27;20449;-48
2021/12/07 15:17:26;;;;;;;;;;;23.60;54.50;;;;;;5136857;27;20316;-55
2021/12/07 15:19:53;;;;;;;;;;;23.60;54.50;;;;;;5136475;27;19931;-58
2021/12/07 15:22:22;;;;;;;;;;;23.60;54.50;;;;;;5135240;27;19930;-51
2021/12/07 15:24:49;;;;;;;;;;;23.60;54.50;;;;;;5136361;27;19972;-58
2021/12/07 15:27:20;;;;;;;;;;;23.60;54.50;;;;;;5136482;27;19923;-52
2021/12/07 15:29:50;;;;;;;;;;;23.60;54.50;;;;;;5101679;27;20332;-52
2021/12/07 15:32:17;;;;;;;;;;;23.60;54.50;;;;;;5117980;27;19931;-55
2021/12/07 15:34:45;;;;;;;;;;;23.60;54.50;;;;;;5135925;27;19972;-57
2021/12/07 15:37:14;;;;;;;;;;;23.60;54.50;;;;;;5135156;27;19924;-57
2021/12/07 15:39:42;;;;;;;;;;;23.60;54.50;;;;;;5136105;27;20006;-55
2021/12/07 15:42:11;;;;;;;;;;;23.60;54.50;;;;;;5135951;27;19976;-49
2021/12/07 15:44:43;;;;;;;;;;;23.60;54.50;;;;;;5136268;27;19947;-58
2021/12/07 15:47:12;;;;;;;;;;;23.60;54.50;;;;;;5136242;27;20010;-57
2021/12/07 15:49:40;;;;;;;;;;;23.60;54.60;;;;;;5135875;27;19924;-58
2021/12/07 15:52:10;;;;;;;;;;;23.70;54.70;;;;;;5134355;27;19972;-51
2021/12/07 15:55:10;;;;;;;;;;;23.60;54.60;;;;;;5133910;27;20456;-59
2021/12/07 15:57:59;;;;;;;;;;;23.60;54.60;;;;;;5135953;27;19935;-58
2021/12/07 16:00:32;;;;;;;;;;;23.60;54.60;;;;;;5136037;27;20294;-55
2021/12/07 16:03:02;;;;;;;;;;;23.60;54.60;;;;;;5135045;27;19924;-52
2021/12/07 16:05:48;;;;;;;;;;;23.60;54.60;;;;;;5135580;27;19929;-58
2021/12/07 16:08:16;;;;;;;;;;;23.60;54.70;;;;;;5134252;27;19970;-57
2021/12/07 16:10:44;;;;;;;;;;;23.60;54.70;;;;;;5135819;27;19928;-59
2021/12/07 16:13:16;;;;;;;;;;;23.60;54.70;;;;;;5135777;27;20247;-58
2021/12/07 16:16:03;;;;;;;;;;;23.60;54.70;;;;;;5135739;27;19930;-58